createdAt,value
2023-05-21T00:00:28.868Z,324.167
2023-05-21T00:02:09.273Z,324.2
2023-05-21T00:03:49.975Z,324.217
2023-05-21T00:05:30.080Z,324.2
2023-05-21T00:07:10.486Z,324.217
2023-05-21T00:08:50.991Z,324.15
2023-05-21T00:10:31.304Z,324.2
2023-05-21T00:12:11.671Z,324.2
2023-05-21T00:13:52.122Z,324.167
2023-05-21T00:15:32.539Z,324.167
2023-05-21T00:17:12.984Z,324.167
2023-05-21T00:18:53.351Z,324.2
2023-05-21T00:20:33.789Z,324.2
2023-05-21T00:22:14.299Z,324.15
2023-05-21T00:23:54.742Z,324.217
2023-05-21T00:25:35.266Z,324.2
2023-05-21T00:27:15.552Z,324.167
2023-05-21T00:28:55.955Z,324.2
2023-05-21T00:30:36.405Z,324.167
2023-05-21T00:32:16.754Z,324.167
2023-05-21T00:33:57.152Z,324.167
2023-05-21T00:35:37.664Z,324.2
2023-05-21T00:37:17.951Z,324.167
2023-05-21T00:38:58.324Z,324.167
2023-05-21T00:40:38.836Z,324.2
2023-05-21T00:42:19.233Z,324.167
2023-05-21T00:43:59.666Z,324.167
2023-05-21T00:45:40.105Z,324.15
2023-05-21T00:47:20.530Z,324.167
2023-05-21T00:49:00.844Z,324.167
2023-05-21T00:50:41.246Z,324.167
2023-05-21T00:52:21.685Z,324.167
2023-05-21T00:54:02.201Z,324.15
2023-05-21T00:55:42.618Z,324.167
2023-05-21T00:57:23.024Z,324.167
2023-05-21T00:59:03.443Z,324.167
2023-05-21T01:00:43.881Z,324.167
2023-05-21T01:02:24.630Z,324.15
2023-05-21T01:04:04.704Z,324.167
2023-05-21T01:05:45.254Z,324.133
2023-05-21T01:07:25.654Z,324.133
2023-05-21T01:09:06.080Z,324.15
2023-05-21T01:10:46.451Z,324.15
2023-05-21T01:12:26.806Z,324.15
2023-05-21T01:14:07.239Z,324.133
2023-05-21T01:15:47.673Z,324.15
2023-05-21T01:17:28.135Z,324.15
2023-05-21T01:19:08.659Z,324.133
2023-05-21T01:20:48.992Z,324.1
2023-05-21T01:22:29.493Z,324.133
2023-05-21T01:24:09.858Z,324.133
2023-05-21T01:25:50.298Z,324.133
2023-05-21T01:27:30.712Z,324.133
2023-05-21T01:29:11.129Z,324.133
2023-05-21T01:30:51.536Z,324.133
2023-05-21T01:32:32.056Z,324.133
2023-05-21T01:34:12.436Z,324.133
2023-05-21T01:35:52.855Z,324.133
2023-05-21T01:37:33.405Z,324.15
2023-05-21T01:39:13.802Z,324.133
2023-05-21T01:40:54.173Z,324.133
2023-05-21T01:42:34.563Z,324.133
2023-05-21T01:44:14.990Z,324.15
2023-05-21T01:45:55.607Z,324.15
2023-05-21T01:47:35.898Z,324.133
2023-05-21T01:49:16.336Z,324.1
2023-05-21T01:50:56.816Z,324.15
2023-05-21T01:52:37.202Z,324.15
2023-05-21T01:54:17.630Z,324.1
2023-05-21T01:55:58.034Z,324.083
2023-05-21T01:57:38.386Z,324.1
2023-05-21T01:59:18.698Z,324.1
2023-05-21T02:00:59.138Z,324.1
2023-05-21T02:02:39.559Z,324.1
2023-05-21T02:04:19.910Z,324.1
2023-05-21T02:06:00.297Z,324.1
2023-05-21T02:07:40.701Z,324.083
2023-05-21T02:09:21.133Z,324.1
2023-05-21T02:11:01.577Z,324.1
2023-05-21T02:12:41.917Z,324.133
2023-05-21T02:16:02.800Z,324.1
2023-05-21T02:17:43.201Z,324.083
2023-05-21T02:19:23.750Z,324.05
2023-05-21T02:21:04.055Z,324.1
2023-05-21T02:22:44.464Z,324.1
2023-05-21T02:24:24.862Z,324.1
2023-05-21T02:26:05.302Z,324.133
2023-05-21T02:27:45.648Z,324.1
2023-05-21T02:29:25.981Z,324.05
2023-05-21T02:31:06.455Z,324.1
2023-05-21T02:32:46.899Z,324.1
2023-05-21T02:34:27.409Z,324.033
2023-05-21T02:36:07.671Z,324.033
2023-05-21T02:37:48.098Z,324.05
2023-05-21T02:39:28.542Z,324.033
2023-05-21T02:41:08.955Z,324.05
2023-05-21T02:42:49.348Z,324
2023-05-21T02:44:29.850Z,324.033
2023-05-21T02:46:10.312Z,324
2023-05-21T02:47:50.638Z,324.033
2023-05-21T02:49:31.078Z,324
2023-05-21T02:51:11.444Z,324.033
2023-05-21T02:52:51.854Z,324.033
2023-05-21T02:54:32.259Z,324.033
2023-05-21T02:56:12.616Z,324
2023-05-21T02:57:53.035Z,323.983
2023-05-21T02:59:33.388Z,323.983
2023-05-21T03:01:13.812Z,323.983
2023-05-21T03:02:54.309Z,323.983
2023-05-21T03:04:34.603Z,323.983
2023-05-21T03:06:15.078Z,324
2023-05-21T03:07:55.425Z,323.983
2023-05-21T03:09:35.905Z,324
2023-05-21T03:11:16.264Z,324
2023-05-21T03:12:56.741Z,323.983
2023-05-21T03:14:37.120Z,324
2023-05-21T03:16:17.537Z,324
2023-05-21T03:17:58.115Z,324
2023-05-21T03:19:38.484Z,323.983
2023-05-21T03:21:18.896Z,323.983
2023-05-21T03:22:59.298Z,323.983
2023-05-21T03:24:39.741Z,324
2023-05-21T03:26:20.158Z,324
2023-05-21T03:28:00.656Z,323.967
2023-05-21T03:29:41.050Z,324
2023-05-21T03:31:21.487Z,324
2023-05-21T03:33:01.976Z,323.933
2023-05-21T03:34:42.315Z,323.967
2023-05-21T03:36:22.759Z,323.967
2023-05-21T03:38:03.147Z,323.967
2023-05-21T03:39:43.512Z,323.967
2023-05-21T03:41:23.913Z,323.967
2023-05-21T03:43:04.287Z,323.933
2023-05-21T03:44:44.652Z,323.967
2023-05-21T03:46:25.065Z,323.983
2023-05-21T03:48:05.468Z,323.933
2023-05-21T03:49:45.902Z,323.967
2023-05-21T03:51:26.272Z,323.933
2023-05-21T03:53:06.748Z,323.933
2023-05-21T03:54:47.168Z,323.967
2023-05-21T03:56:27.528Z,323.967
2023-05-21T03:58:07.889Z,323.967
2023-05-21T03:59:48.281Z,323.967
2023-05-21T04:01:28.788Z,323.983
2023-05-21T04:03:09.083Z,323.967
2023-05-21T04:04:49.488Z,323.933
2023-05-21T04:06:29.826Z,323.933
2023-05-21T04:08:10.217Z,323.933
2023-05-21T04:09:50.671Z,323.917
2023-05-21T04:11:31.112Z,323.933
2023-05-21T04:13:11.573Z,323.967
2023-05-21T04:14:51.989Z,323.933
2023-05-21T04:16:32.439Z,323.933
2023-05-21T04:18:12.855Z,323.933
2023-05-21T04:19:53.308Z,323.933
2023-05-21T04:21:33.735Z,323.933
2023-05-21T04:23:14.125Z,323.933
2023-05-21T04:24:54.557Z,323.933
2023-05-21T04:26:34.943Z,323.933
2023-05-21T04:28:15.415Z,323.933
2023-05-21T04:29:55.863Z,323.933
2023-05-21T04:31:36.328Z,323.933
2023-05-21T04:33:16.732Z,323.933
2023-05-21T04:34:57.190Z,323.933
2023-05-21T04:36:37.625Z,323.917
2023-05-21T04:38:18.051Z,323.883
2023-05-21T04:39:58.492Z,323.967
2023-05-21T04:41:38.881Z,323.917
2023-05-21T04:43:19.331Z,323.883
2023-05-21T04:44:59.677Z,323.967
2023-05-21T04:46:41.816Z,323.917
2023-05-21T04:48:20.488Z,323.917
2023-05-21T04:50:00.857Z,323.917
2023-05-21T04:51:41.256Z,323.883
2023-05-21T04:53:21.698Z,323.917
2023-05-21T04:55:02.214Z,323.917
2023-05-21T04:56:42.538Z,323.883
2023-05-21T04:58:22.929Z,323.883
2023-05-21T05:00:03.325Z,323.883
2023-05-21T05:01:43.756Z,323.917
2023-05-21T05:03:24.205Z,323.883
2023-05-21T05:05:04.636Z,323.917
2023-05-21T05:06:45.016Z,323.917
2023-05-21T05:08:25.443Z,323.917
2023-05-21T05:10:05.914Z,323.883
2023-05-21T05:11:46.455Z,323.883
2023-05-21T05:13:26.872Z,323.883
2023-05-21T05:15:07.260Z,323.883
2023-05-21T05:16:47.636Z,323.883
2023-05-21T05:18:28.086Z,323.883
2023-05-21T05:20:08.458Z,323.883
2023-05-21T05:21:48.858Z,323.917
2023-05-21T05:23:29.330Z,323.917
2023-05-21T05:25:09.775Z,323.883
2023-05-21T05:26:50.230Z,323.883
2023-05-21T05:28:30.652Z,323.883
2023-05-21T05:30:11.137Z,323.883
2023-05-21T05:31:51.570Z,323.883
2023-05-21T05:33:32.109Z,323.883
2023-05-21T05:35:12.577Z,323.867
2023-05-21T05:36:52.996Z,323.883
2023-05-21T05:38:33.515Z,323.917
2023-05-21T05:40:13.976Z,323.867
2023-05-21T05:41:54.380Z,323.833
2023-05-21T05:43:34.853Z,323.833
2023-05-21T05:45:15.384Z,323.867
2023-05-21T05:46:55.800Z,323.883
2023-05-21T05:48:36.268Z,323.867
2023-05-21T05:50:16.661Z,323.867
2023-05-21T05:51:57.094Z,323.833
2023-05-21T05:53:37.422Z,323.867
2023-05-21T05:55:17.774Z,323.867
2023-05-21T05:56:58.199Z,323.867
2023-05-21T05:58:38.675Z,323.833
2023-05-21T06:00:19.064Z,323.817
2023-05-21T06:01:59.430Z,323.8
2023-05-21T06:03:39.853Z,323.8
2023-05-21T06:05:20.271Z,323.817
2023-05-21T06:07:00.722Z,323.8
2023-05-21T06:08:41.196Z,323.817
2023-05-21T06:10:21.685Z,323.767
2023-05-21T06:12:02.176Z,323.8
2023-05-21T06:13:42.554Z,323.767
2023-05-21T06:15:23.050Z,323.8
2023-05-21T06:17:03.531Z,323.767
2023-05-21T06:18:44.114Z,323.8
2023-05-21T06:20:24.456Z,323.8
2023-05-21T06:22:04.892Z,323.817
2023-05-21T06:23:45.342Z,323.767
2023-05-21T06:25:25.751Z,323.8
2023-05-21T06:27:06.239Z,323.75
2023-05-21T06:28:46.750Z,323.767
2023-05-21T06:30:27.197Z,323.8
2023-05-21T06:32:07.515Z,323.8
2023-05-21T06:33:48.128Z,323.8
2023-05-21T06:35:28.512Z,323.817
2023-05-21T06:37:08.904Z,323.8
2023-05-21T06:38:49.334Z,323.8
2023-05-21T06:40:29.794Z,323.817
2023-05-21T06:42:10.306Z,323.8
2023-05-21T06:43:50.768Z,323.817
2023-05-21T06:45:31.232Z,323.767
2023-05-21T06:47:11.621Z,323.767
2023-05-21T06:48:52.183Z,323.75
2023-05-21T06:50:32.604Z,323.767
2023-05-21T06:52:13.080Z,323.8
2023-05-21T06:53:53.600Z,323.767
2023-05-21T06:55:34.095Z,323.767
2023-05-21T06:57:14.404Z,323.767
2023-05-21T06:58:54.852Z,323.75
2023-05-21T07:00:35.207Z,323.767
2023-05-21T07:02:15.679Z,323.75
2023-05-21T07:03:56.076Z,323.767
2023-05-21T07:05:36.750Z,323.767
2023-05-21T07:07:17.051Z,323.767
2023-05-21T07:08:57.446Z,323.767
2023-05-21T07:10:38.086Z,323.767
2023-05-21T07:12:18.417Z,323.767
2023-05-21T07:13:58.764Z,323.767
2023-05-21T07:15:39.205Z,323.767
2023-05-21T07:17:19.551Z,323.75
2023-05-21T07:19:00.118Z,323.767
2023-05-21T07:20:40.562Z,323.767
2023-05-21T07:22:21.023Z,323.75
2023-05-21T07:24:01.424Z,323.767
2023-05-21T07:25:41.810Z,323.767
2023-05-21T07:27:25.916Z,323.767
2023-05-21T07:29:02.641Z,323.767
2023-05-21T07:30:43.067Z,323.75
2023-05-21T07:32:23.597Z,323.767
2023-05-21T07:34:03.891Z,323.75
2023-05-21T07:35:44.342Z,323.75
2023-05-21T07:37:24.779Z,323.717
2023-05-21T07:39:05.226Z,323.75
2023-05-21T07:40:45.644Z,323.75
2023-05-21T07:42:26.051Z,323.7
2023-05-21T07:44:06.448Z,323.717
2023-05-21T07:45:46.883Z,323.717
2023-05-21T07:47:27.367Z,323.75
2023-05-21T07:49:07.721Z,323.75
2023-05-21T07:50:48.147Z,323.717
2023-05-21T07:52:28.624Z,323.717
2023-05-21T07:54:08.972Z,323.717
2023-05-21T07:55:49.361Z,323.717
2023-05-21T07:57:29.733Z,323.75
2023-05-21T07:59:11.681Z,323.75
2023-05-21T08:00:50.547Z,323.717
2023-05-21T08:02:31.068Z,323.75
2023-05-21T08:04:11.537Z,323.717
2023-05-21T08:05:51.790Z,323.717
2023-05-21T08:07:32.341Z,323.75
2023-05-21T08:09:12.865Z,323.717
2023-05-21T08:10:53.261Z,323.717
2023-05-21T08:12:33.737Z,323.717
2023-05-21T08:14:14.147Z,323.75
2023-05-21T08:15:54.711Z,323.717
2023-05-21T08:17:35.112Z,323.717
2023-05-21T08:19:15.518Z,323.717
2023-05-21T08:20:55.849Z,323.717
2023-05-21T08:22:36.286Z,323.75
2023-05-21T08:24:16.779Z,323.75
2023-05-21T08:25:57.153Z,323.667
2023-05-21T08:27:37.625Z,323.7
2023-05-21T08:29:17.973Z,323.7
2023-05-21T08:30:58.399Z,323.75
2023-05-21T08:32:38.887Z,323.667
2023-05-21T08:34:19.267Z,323.7
2023-05-21T08:35:59.659Z,323.667
2023-05-21T08:37:40.110Z,323.667
2023-05-21T08:39:20.508Z,323.667
2023-05-21T08:41:00.874Z,323.65
2023-05-21T08:42:41.284Z,323.7
2023-05-21T08:44:21.703Z,323.667
2023-05-21T08:46:02.179Z,323.667
2023-05-21T08:47:42.577Z,323.65
2023-05-21T08:49:24.149Z,323.7
2023-05-21T08:51:03.530Z,323.7
2023-05-21T08:52:46.943Z,323.667
2023-05-21T08:54:24.344Z,323.717
2023-05-21T08:56:04.762Z,323.7
2023-05-21T08:57:45.164Z,323.7
2023-05-21T08:59:25.577Z,323.667
2023-05-21T09:01:05.969Z,323.667
2023-05-21T09:02:46.264Z,323.667
2023-05-21T09:04:26.783Z,323.667
2023-05-21T09:06:07.053Z,323.7
2023-05-21T09:07:47.452Z,323.717
2023-05-21T09:09:27.915Z,323.667
2023-05-21T09:11:08.332Z,323.667
2023-05-21T09:12:48.783Z,323.667
2023-05-21T09:14:29.196Z,323.65
2023-05-21T09:16:09.615Z,323.667
2023-05-21T09:17:50.000Z,323.667
2023-05-21T09:19:30.439Z,323.65
2023-05-21T09:21:10.842Z,323.65
2023-05-21T09:22:51.223Z,323.65
2023-05-21T09:24:33.118Z,323.65
2023-05-21T09:26:12.100Z,323.667
2023-05-21T09:27:52.540Z,323.667
2023-05-21T09:29:32.968Z,323.65
2023-05-21T09:31:13.474Z,323.65
2023-05-21T09:32:53.874Z,323.667
2023-05-21T09:34:34.245Z,323.65
2023-05-21T09:36:14.709Z,323.633
2023-05-21T09:37:55.178Z,323.65
2023-05-21T09:39:35.608Z,323.65
2023-05-21T09:41:19.836Z,323.65
2023-05-21T09:42:56.375Z,323.65
2023-05-21T09:44:36.824Z,323.667
2023-05-21T09:46:17.343Z,323.667
2023-05-21T09:47:57.687Z,323.667
2023-05-21T09:49:38.000Z,323.6
2023-05-21T09:51:18.431Z,323.667
2023-05-21T09:52:58.868Z,323.633
2023-05-21T09:54:39.250Z,323.633
2023-05-21T09:56:19.804Z,323.633
2023-05-21T09:58:00.147Z,323.633
2023-05-21T09:59:40.455Z,323.633
2023-05-21T10:01:20.875Z,323.633
2023-05-21T10:03:01.356Z,323.633
2023-05-21T10:04:41.728Z,323.633
2023-05-21T10:06:22.147Z,323.633
2023-05-21T10:08:02.597Z,323.65
2023-05-21T10:09:43.095Z,323.633
2023-05-21T10:11:23.515Z,323.65
2023-05-21T10:13:04.009Z,323.633
2023-05-21T10:14:44.403Z,323.65
2023-05-21T10:16:24.824Z,323.633
2023-05-21T10:18:05.296Z,323.65
2023-05-21T10:19:45.686Z,323.65
2023-05-21T10:21:25.987Z,323.65
2023-05-21T10:23:06.382Z,323.65
2023-05-21T10:24:46.831Z,323.633
2023-05-21T10:26:27.141Z,323.633
2023-05-21T10:28:07.431Z,323.65
2023-05-21T10:29:47.847Z,323.583
2023-05-21T10:31:28.310Z,323.633
2023-05-21T10:33:08.821Z,323.583
2023-05-21T10:34:49.179Z,323.55
2023-05-21T10:36:29.565Z,323.6
2023-05-21T10:38:10.008Z,323.583
2023-05-21T10:39:50.338Z,323.55
2023-05-21T10:41:30.793Z,323.55
2023-05-21T10:43:11.238Z,323.55
2023-05-21T10:44:51.644Z,323.6
2023-05-21T10:46:32.079Z,323.55
2023-05-21T10:48:12.574Z,323.583
2023-05-21T10:49:52.994Z,323.583
2023-05-21T10:51:33.379Z,323.583
2023-05-21T10:53:13.754Z,323.55
2023-05-21T10:54:54.130Z,323.55
2023-05-21T10:56:34.526Z,323.55
2023-05-21T10:58:14.814Z,323.55
2023-05-21T10:59:55.137Z,323.55
2023-05-21T11:01:35.504Z,323.583
2023-05-21T11:03:15.874Z,323.583
2023-05-21T11:04:56.207Z,323.55
2023-05-21T11:06:36.638Z,323.583
2023-05-21T11:08:17.073Z,323.583
2023-05-21T11:09:57.502Z,323.55
2023-05-21T11:11:37.910Z,323.533
2023-05-21T11:13:18.336Z,323.55
2023-05-21T11:14:58.746Z,323.55
2023-05-21T11:16:39.156Z,323.533
2023-05-21T11:18:19.604Z,323.5
2023-05-21T11:20:00.098Z,323.55
2023-05-21T11:21:40.540Z,323.55
2023-05-21T11:23:20.985Z,323.533
2023-05-21T11:25:01.371Z,323.55
2023-05-21T11:26:41.823Z,323.533
2023-05-21T11:28:22.225Z,323.55
2023-05-21T11:30:02.531Z,323.533
2023-05-21T11:31:42.851Z,323.55
2023-05-21T11:33:23.136Z,323.533
2023-05-21T11:35:03.419Z,323.533
2023-05-21T11:36:43.716Z,323.5
2023-05-21T11:38:24.099Z,323.533
2023-05-21T11:40:04.551Z,323.533
2023-05-21T11:41:45.014Z,323.533
2023-05-21T11:43:25.412Z,323.533
2023-05-21T11:45:05.796Z,323.533
2023-05-21T11:46:46.337Z,323.533
2023-05-21T11:48:27.673Z,323.55
2023-05-21T11:50:07.067Z,323.5
2023-05-21T11:51:47.561Z,323.533
2023-05-21T11:53:28.002Z,323.55
2023-05-21T11:55:08.429Z,323.483
2023-05-21T11:56:48.846Z,323.533
2023-05-21T11:58:29.234Z,323.5
2023-05-21T12:00:09.663Z,323.55
2023-05-21T12:01:50.019Z,323.5
2023-05-21T12:03:30.817Z,323.483
2023-05-21T12:05:12.549Z,323.5
2023-05-21T12:06:51.213Z,323.5
2023-05-21T12:08:31.581Z,323.5
2023-05-21T12:10:12.067Z,323.5
2023-05-21T12:11:52.377Z,323.533
2023-05-21T12:13:32.883Z,323.5
2023-05-21T12:15:13.355Z,323.5
2023-05-21T12:16:53.921Z,323.5
2023-05-21T12:18:34.201Z,323.483
2023-05-21T12:20:14.591Z,323.483
2023-05-21T12:21:55.005Z,323.5
2023-05-21T12:23:35.491Z,323.483
2023-05-21T12:25:15.889Z,323.5
2023-05-21T12:26:56.251Z,323.5
2023-05-21T12:28:36.714Z,323.483
2023-05-21T12:30:17.163Z,323.483
2023-05-21T12:31:57.565Z,323.467
2023-05-21T12:33:38.032Z,323.433
2023-05-21T12:35:18.451Z,323.5
2023-05-21T12:36:58.648Z,323.5
2023-05-21T12:38:38.926Z,323.483
2023-05-21T12:40:19.261Z,323.483
2023-05-21T12:41:59.556Z,323.483
2023-05-21T12:43:39.873Z,323.5
2023-05-21T12:45:20.366Z,323.483
2023-05-21T12:47:00.795Z,323.483
2023-05-21T12:48:41.242Z,323.467
2023-05-21T12:50:21.692Z,323.483
2023-05-21T12:52:02.127Z,323.483
2023-05-21T12:53:42.583Z,323.483
2023-05-21T12:55:23.006Z,323.467
2023-05-21T12:57:03.477Z,323.467
2023-05-21T12:58:43.906Z,323.483
2023-05-21T13:00:24.322Z,323.483
2023-05-21T13:02:04.783Z,323.467
2023-05-21T13:03:45.280Z,323.467
2023-05-21T13:05:25.715Z,323.483
2023-05-21T13:07:06.016Z,323.483
2023-05-21T13:08:46.302Z,323.467
2023-05-21T13:10:26.667Z,323.483
2023-05-21T13:12:07.070Z,323.483
2023-05-21T13:13:47.490Z,323.483
2023-05-21T13:15:27.947Z,323.467
2023-05-21T13:17:08.459Z,323.467
2023-05-21T13:18:48.927Z,323.467
2023-05-21T13:20:29.447Z,323.483
2023-05-21T13:22:09.808Z,323.467
2023-05-21T13:23:50.268Z,323.467
2023-05-21T13:25:30.705Z,323.467
2023-05-21T13:27:11.172Z,323.433
2023-05-21T13:28:51.631Z,323.433
2023-05-21T13:30:31.936Z,323.417
2023-05-21T13:32:12.389Z,323.417
2023-05-21T13:33:52.818Z,323.433
2023-05-21T13:35:33.226Z,323.433
2023-05-21T13:37:13.579Z,323.467
2023-05-21T13:38:53.907Z,323.433
2023-05-21T13:40:35.987Z,323.433
2023-05-21T13:42:14.579Z,323.433
2023-05-21T13:43:54.967Z,323.433
2023-05-21T13:45:35.349Z,323.433
2023-05-21T13:47:15.816Z,323.433
2023-05-21T13:48:56.264Z,323.433
2023-05-21T13:50:36.950Z,323.433
2023-05-21T13:52:17.144Z,323.433
2023-05-21T13:53:57.486Z,323.467
2023-05-21T13:55:37.918Z,323.417
2023-05-21T13:57:18.376Z,323.417
2023-05-21T13:58:58.785Z,323.417
2023-05-21T14:00:39.516Z,323.433
2023-05-21T14:02:19.659Z,323.433
2023-05-21T14:03:59.895Z,323.433
2023-05-21T14:05:40.294Z,323.433
2023-05-21T14:07:20.741Z,323.433
2023-05-21T14:09:01.214Z,323.417
2023-05-21T14:10:41.639Z,323.433
2023-05-21T14:12:21.957Z,323.417
2023-05-21T14:14:02.284Z,323.417
2023-05-21T14:15:42.753Z,323.383
2023-05-21T14:17:23.210Z,323.383
2023-05-21T14:19:03.648Z,323.417
2023-05-21T14:20:43.926Z,323.417
2023-05-21T14:22:24.461Z,323.383
2023-05-21T14:24:04.832Z,323.417
2023-05-21T14:25:45.278Z,323.417
2023-05-21T14:27:25.687Z,323.417
2023-05-21T14:29:06.172Z,323.417
2023-05-21T14:30:46.578Z,323.417
2023-05-21T14:32:27.278Z,323.383
2023-05-21T14:34:07.566Z,323.333
2023-05-21T14:35:47.989Z,323.317
2023-05-21T14:37:28.399Z,323.333
2023-05-21T14:39:08.844Z,323.333
2023-05-21T14:40:49.245Z,323.383
2023-05-21T14:42:30.541Z,323.433
2023-05-21T14:44:10.079Z,323.417
2023-05-21T14:45:50.500Z,323.333
2023-05-21T14:47:30.899Z,323.383
2023-05-21T14:49:11.262Z,323.333
2023-05-21T14:50:51.708Z,323.317
2023-05-21T14:52:32.237Z,323.317
2023-05-21T14:54:12.672Z,323.383
2023-05-21T14:55:53.067Z,323.317
2023-05-21T14:57:33.432Z,323.317
2023-05-21T14:59:13.871Z,323.333
2023-05-21T15:00:54.254Z,323.333
2023-05-21T15:02:34.837Z,323.367
2023-05-21T15:04:15.221Z,323.333
2023-05-21T15:05:55.562Z,323.333
2023-05-21T15:07:35.983Z,323.333
2023-05-21T15:09:16.396Z,323.333
2023-05-21T15:10:56.825Z,323.317
2023-05-21T15:12:37.248Z,323.317
2023-05-21T15:14:17.619Z,323.333
2023-05-21T15:15:58.084Z,323.333
2023-05-21T15:17:38.446Z,323.317
2023-05-21T15:19:18.804Z,323.333
2023-05-21T15:20:59.030Z,323.333
2023-05-21T15:22:39.365Z,323.317
2023-05-21T15:24:19.690Z,323.317
2023-05-21T15:25:59.951Z,323.367
2023-05-21T15:27:40.320Z,323.317
2023-05-21T15:29:20.876Z,323.317
2023-05-21T15:31:01.246Z,323.267
2023-05-21T15:32:41.650Z,323.317
2023-05-21T15:34:22.156Z,323.317
2023-05-21T15:36:02.709Z,323.317
2023-05-21T15:37:43.027Z,323.3
2023-05-21T15:39:23.431Z,323.3
2023-05-21T15:41:03.841Z,323.317
2023-05-21T15:42:44.315Z,323.3
2023-05-21T15:44:24.736Z,323.3
2023-05-21T15:46:05.193Z,323.317
2023-05-21T15:47:45.717Z,323.317
2023-05-21T15:49:26.162Z,323.3
2023-05-21T15:51:06.627Z,323.267
2023-05-21T15:52:46.972Z,323.3
2023-05-21T15:54:27.327Z,323.3
2023-05-21T15:56:07.752Z,323.267
2023-05-21T15:57:48.221Z,323.317
2023-05-21T15:59:28.577Z,323.267
2023-05-21T16:01:09.082Z,323.3
2023-05-21T16:02:49.443Z,323.3
2023-05-21T16:04:29.823Z,323.3
2023-05-21T16:06:10.236Z,323.3
2023-05-21T16:07:50.659Z,323.3
2023-05-21T16:09:31.073Z,323.317
2023-05-21T16:11:11.389Z,323.333
2023-05-21T16:12:51.783Z,323.3
2023-05-21T16:14:32.222Z,323.317
2023-05-21T16:16:12.580Z,323.3
2023-05-21T16:17:53.099Z,323.3
2023-05-21T16:19:33.548Z,323.317
2023-05-21T16:21:13.845Z,323.25
2023-05-21T16:22:54.287Z,323.317
2023-05-21T16:24:34.675Z,323.3
2023-05-21T16:26:15.094Z,323.267
2023-05-21T16:27:55.509Z,323.3
2023-05-21T16:29:36.405Z,323.267
2023-05-21T16:31:16.256Z,323.267
2023-05-21T16:32:56.770Z,323.267
2023-05-21T16:34:37.114Z,323.267
2023-05-21T16:36:18.116Z,323.267
2023-05-21T16:37:57.963Z,323.267
2023-05-21T16:39:38.389Z,323.25
2023-05-21T16:41:18.790Z,323.267
2023-05-21T16:43:01.800Z,323.25
2023-05-21T16:44:39.713Z,323.267
2023-05-21T16:46:20.165Z,323.25
2023-05-21T16:48:00.574Z,323.267
2023-05-21T16:49:40.953Z,323.267
2023-05-21T16:51:21.379Z,323.25
2023-05-21T16:53:01.786Z,323.267
2023-05-21T16:54:43.536Z,323.267
2023-05-21T16:56:22.708Z,323.25
2023-05-21T16:58:03.034Z,323.267
2023-05-21T16:59:43.416Z,323.25
2023-05-21T17:01:23.852Z,323.267
2023-05-21T17:03:04.395Z,323.267
2023-05-21T17:04:44.698Z,323.3
2023-05-21T17:06:25.106Z,323.25
2023-05-21T17:08:05.626Z,323.267
2023-05-21T17:09:46.072Z,323.267
2023-05-21T17:11:26.563Z,323.25
2023-05-21T17:13:20.886Z,323.25
2023-05-21T17:14:47.307Z,323.25
2023-05-21T17:16:27.704Z,323.25
2023-05-21T17:18:07.980Z,323.25
2023-05-21T17:19:48.207Z,323.25
2023-05-21T17:21:28.526Z,323.217
2023-05-21T17:23:08.993Z,323.217
2023-05-21T17:24:49.418Z,323.25
2023-05-21T17:26:29.882Z,323.25
2023-05-21T17:28:10.291Z,323.217
2023-05-21T17:29:50.728Z,323.217
2023-05-21T17:31:31.187Z,323.217
2023-05-21T17:33:11.614Z,323.25
2023-05-21T17:34:52.043Z,323.217
2023-05-21T17:36:32.497Z,323.25
2023-05-21T17:38:12.970Z,323.25
2023-05-21T17:39:53.450Z,323.2
2023-05-21T17:41:33.934Z,323.217
2023-05-21T17:43:14.406Z,323.217
2023-05-21T17:44:54.743Z,323.217
2023-05-21T17:46:35.092Z,323.2
2023-05-21T17:48:15.342Z,323.2
2023-05-21T17:49:55.717Z,323.2
2023-05-21T17:51:36.182Z,323.2
2023-05-21T17:53:16.636Z,323.2
2023-05-21T17:54:57.043Z,323.2
2023-05-21T17:56:37.446Z,323.2
2023-05-21T17:58:17.921Z,323.133
2023-05-21T17:59:58.344Z,323.133
2023-05-21T18:01:38.796Z,323.133
2023-05-21T18:03:19.264Z,323.133
2023-05-21T18:04:59.668Z,323.15
2023-05-21T18:06:40.093Z,323.133
2023-05-21T18:08:20.484Z,323.133
2023-05-21T18:10:00.974Z,323.15
2023-05-21T18:11:41.349Z,323.133
2023-05-21T18:13:21.740Z,323.083
2023-05-21T18:15:02.213Z,323.133
2023-05-21T18:16:42.550Z,323.1
2023-05-21T18:18:22.852Z,323.083
2023-05-21T18:20:03.137Z,323.133
2023-05-21T18:21:43.455Z,323.1
2023-05-21T18:23:23.744Z,323.1
2023-05-21T18:25:04.048Z,323.1
2023-05-21T18:26:44.362Z,323.133
2023-05-21T18:28:24.640Z,323.1
2023-05-21T18:30:04.998Z,323.083
2023-05-21T18:31:45.268Z,323.083
2023-05-21T18:33:25.545Z,323.083
2023-05-21T18:35:05.829Z,323.083
2023-05-21T18:36:46.157Z,323.083
2023-05-21T18:38:26.657Z,323.05
2023-05-21T18:40:07.090Z,323.033
2023-05-21T18:41:48.147Z,323.083
2023-05-21T18:43:27.876Z,323.05
2023-05-21T18:45:08.384Z,323.05
2023-05-21T18:46:48.796Z,323.05
2023-05-21T18:48:29.196Z,323.05
2023-05-21T18:50:09.631Z,323.05
2023-05-21T18:51:50.004Z,323.05
2023-05-21T18:53:30.470Z,323.05
2023-05-21T18:55:11.000Z,323.05
2023-05-21T18:56:51.267Z,323.05
2023-05-21T18:58:31.653Z,323.033
2023-05-21T19:00:12.089Z,323.033
2023-05-21T19:01:52.513Z,323.033
2023-05-21T19:03:32.898Z,323.033
2023-05-21T19:05:13.319Z,323.033
2023-05-21T19:06:53.633Z,323.017
2023-05-21T19:08:33.919Z,323.033
2023-05-21T19:10:14.223Z,322.967
2023-05-21T19:11:54.544Z,323.017
2023-05-21T19:13:34.843Z,322.983
2023-05-21T19:15:15.129Z,322.983
2023-05-21T19:16:55.452Z,322.983
2023-05-21T19:18:35.764Z,322.983
2023-05-21T19:20:16.068Z,322.967
2023-05-21T19:21:56.516Z,322.983
2023-05-21T19:23:51.256Z,322.983
2023-05-21T19:25:17.300Z,322.983
2023-05-21T19:26:57.751Z,322.933
2023-05-21T19:28:38.198Z,322.983
2023-05-21T19:30:18.571Z,322.983
2023-05-21T19:31:58.944Z,322.983
2023-05-21T19:33:39.431Z,322.967
2023-05-21T19:35:19.811Z,322.967
2023-05-21T19:37:00.188Z,322.967
2023-05-21T19:38:40.582Z,322.967
2023-05-21T19:40:21.014Z,322.933
2023-05-21T19:42:01.466Z,322.967
2023-05-21T19:43:41.893Z,322.933
2023-05-21T19:45:22.319Z,322.933
2023-05-21T19:47:02.669Z,322.933
2023-05-21T19:48:43.124Z,322.933
2023-05-21T19:50:23.461Z,322.883
2023-05-21T19:52:03.889Z,322.917
2023-05-21T19:53:44.302Z,322.867
2023-05-21T19:55:25.028Z,322.883
2023-05-21T19:57:05.158Z,322.867
2023-05-21T19:58:45.555Z,322.883
2023-05-21T20:00:25.976Z,322.867
2023-05-21T20:02:06.348Z,322.883
2023-05-21T20:03:46.825Z,322.867
2023-05-21T20:05:27.194Z,322.85
2023-05-21T20:07:07.527Z,322.867
2023-05-21T20:08:47.870Z,322.867
2023-05-21T20:10:28.295Z,322.867
2023-05-21T20:12:08.653Z,322.867
2023-05-21T20:13:49.061Z,322.85
2023-05-21T20:15:29.434Z,322.85
2023-05-21T20:17:09.921Z,322.867
2023-05-21T20:18:50.365Z,322.867
2023-05-21T20:20:30.803Z,322.867
2023-05-21T20:22:11.217Z,322.867
2023-05-21T20:23:51.624Z,322.867
2023-05-21T20:25:32.013Z,322.85
2023-05-21T20:27:12.308Z,322.85
2023-05-21T20:28:52.723Z,322.817
2023-05-21T20:30:33.090Z,322.817
2023-05-21T20:32:13.661Z,322.85
2023-05-21T20:33:54.127Z,322.817
2023-05-21T20:35:34.537Z,322.85